Wetterdaten: Woche 16.06.14 - 22.06.14 (KW25)
Datum Zeit Temperatur Luftfeuchte Luftdruck Niederschlag Windrichtung Sonnenschein Solar Wind
16.06.2014 00:00 13,8 C 69 % 1015,9 hPa 0,0 l/m NO 0,00 h 0 W/m 9,3 km/h (2 Bft)
16.06.2014 01:00 12,7 C 74 % 1016,0 hPa 0,0 l/m N-NO 0,00 h 0 W/m 8,4 km/h (2 Bft)
16.06.2014 02:00 11,9 C 77 % 1015,9 hPa 0,0 l/m N-NO 0,00 h 0 W/m 8,7 km/h (2 Bft)
16.06.2014 03:00 11,3 C 79 % 1015,7 hPa 0,0 l/m NO 0,00 h 0 W/m 7,5 km/h (2 Bft)
16.06.2014 04:00 10,6 C 81 % 1015,5 hPa 0,0 l/m O-NO 0,00 h 0 W/m 4,1 km/h (1 Bft)
16.06.2014 05:00 9,9 C 83 % 1015,5 hPa 0,0 l/m N 0,00 h 9 W/m 9,3 km/h (2 Bft)
16.06.2014 06:00 10,3 C 82 % 1015,7 hPa 0,0 l/m N-NO 0,00 h 67 W/m 11,3 km/h (2 Bft)
16.06.2014 07:00 12,2 C 77 % 1015,7 hPa 0,0 l/m N-NO 1,00 h 216 W/m 11,3 km/h (2 Bft)
16.06.2014 08:00 14,1 C 70 % 1015,6 hPa 0,0 l/m NO 1,00 h 379 W/m 12,2 km/h (2 Bft)
16.06.2014 09:00 15,9 C 66 % 1015,5 hPa 0,0 l/m N-NO 1,00 h 540 W/m 16,1 km/h (3 Bft)
16.06.2014 10:00 17,6 C 59 % 1015,3 hPa 0,0 l/m N-NO 0,83 h 600 W/m 18,4 km/h (3 Bft)
16.06.2014 11:00 18,1 C 55 % 1015,3 hPa 0,0 l/m O-NO 0,50 h 524 W/m 18,4 km/h (3 Bft)
16.06.2014 12:00 18,9 C 51 % 1015,3 hPa 0,0 l/m O-NO 0,58 h 645 W/m 18,9 km/h (3 Bft)
16.06.2014 13:00 20,1 C 46 % 1014,8 hPa 0,0 l/m O-NO 0,75 h 801 W/m 18,8 km/h (3 Bft)
16.06.2014 14:00 20,9 C 42 % 1014,3 hPa 0,0 l/m O-NO 0,75 h 777 W/m 18,8 km/h (3 Bft)
16.06.2014 15:00 21,0 C 41 % 1014,1 hPa 0,0 l/m NO 0,58 h 658 W/m 17,2 km/h (3 Bft)
16.06.2014 16:00 20,8 C 39 % 1014,0 hPa 0,0 l/m O 0,67 h 532 W/m 15,2 km/h (3 Bft)
16.06.2014 17:00 21,8 C 34 % 1013,7 hPa 0,0 l/m NO 1,00 h 588 W/m 17,2 km/h (3 Bft)
16.06.2014 18:00 21,5 C 35 % 1013,3 hPa 0,0 l/m O-NO 1,00 h 411 W/m 15,2 km/h (3 Bft)
16.06.2014 19:00 20,4 C 38 % 1013,4 hPa 0,0 l/m NO 0,50 h 137 W/m 11,6 km/h (2 Bft)
16.06.2014 20:00 18,5 C 44 % 1013,5 hPa 0,0 l/m NO 0,00 h 30 W/m 6,5 km/h (2 Bft)
16.06.2014 21:00 16,8 C 51 % 1013,7 hPa 0,0 l/m NO 0,00 h 7 W/m 7,5 km/h (2 Bft)
16.06.2014 22:00 15,3 C 57 % 1014,1 hPa 0,0 l/m N-NO 0,00 h 0 W/m 7,8 km/h (2 Bft)
16.06.2014 23:00 13,8 C 65 % 1014,4 hPa 0,0 l/m N-NO 0,00 h 0 W/m 7,1 km/h (2 Bft)
17.06.2014 00:00 13,1 C 68 % 1014,5 hPa 0,0 l/m N-NW 0,00 h 0 W/m 8,7 km/h (2 Bft)
17.06.2014 01:00 12,3 C 72 % 1014,6 hPa 0,0 l/m N-NW 0,00 h 0 W/m 6,5 km/h (2 Bft)
17.06.2014 02:00 11,6 C 78 % 1014,6 hPa 0,0 l/m N-NW 0,00 h 0 W/m 6,7 km/h (2 Bft)
17.06.2014 03:00 11,3 C 83 % 1014,5 hPa 0,0 l/m N 0,00 h 0 W/m 7,4 km/h (2 Bft)
17.06.2014 04:00 11,1 C 84 % 1014,4 hPa 0,0 l/m N 0,00 h 0 W/m 5,6 km/h (1 Bft)
17.06.2014 05:00 10,7 C 85 % 1014,4 hPa 0,0 l/m N 0,00 h 13 W/m 3,1 km/h (1 Bft)
17.06.2014 06:00 11,2 C 85 % 1014,7 hPa 0,0 l/m N-NO 0,00 h 41 W/m 4,9 km/h (1 Bft)
17.06.2014 07:00 12,7 C 79 % 1014,8 hPa 0,0 l/m NO 0,67 h 224 W/m 12,5 km/h (3 Bft)
17.06.2014 08:00 13,7 C 74 % 1014,9 hPa 0,0 l/m NO 0,33 h 226 W/m 14,6 km/h (3 Bft)
17.06.2014 09:00 14,2 C 74 % 1015,1 hPa 0,0 l/m NO 0,42 h 327 W/m 14,1 km/h (3 Bft)
17.06.2014 10:00 16,0 C 69 % 1015,0 hPa 0,0 l/m O-NO 0,83 h 541 W/m 15,6 km/h (3 Bft)
17.06.2014 11:00 16,1 C 67 % 1015,2 hPa 0,0 l/m N-NO 0,25 h 407 W/m 16,6 km/h (3 Bft)
17.06.2014 12:00 18,7 C 59 % 1015,1 hPa 0,0 l/m NO 1,00 h 792 W/m 19,8 km/h (4 Bft)
17.06.2014 13:00 20,4 C 49 % 1014,5 hPa 0,0 l/m O-NO 0,75 h 756 W/m 21,0 km/h (4 Bft)
17.06.2014 14:00 20,2 C 48 % 1014,2 hPa 0,0 l/m N-NO 0,42 h 505 W/m 21,0 km/h (4 Bft)
17.06.2014 15:00 18,5 C 60 % 1014,0 hPa 0,2 l/m O 0,00 h 181 W/m 15,5 km/h (3 Bft)
17.06.2014 16:00 19,9 C 47 % 1013,7 hPa 0,0 l/m O-NO 0,67 h 530 W/m 23,0 km/h (4 Bft)
17.06.2014 17:00 18,9 C 50 % 1013,6 hPa 0,0 l/m NO 0,17 h 266 W/m 22,4 km/h (4 Bft)
17.06.2014 18:00 18,3 C 56 % 1013,5 hPa 0,0 l/m N-NO 0,83 h 361 W/m 22,8 km/h (4 Bft)
17.06.2014 19:00 17,9 C 60 % 1013,6 hPa 0,0 l/m NO 1,00 h 223 W/m 18,5 km/h (3 Bft)
17.06.2014 20:00 17,0 C 65 % 1013,9 hPa 0,0 l/m N-NO 0,25 h 42 W/m 20,9 km/h (4 Bft)
17.06.2014 21:00 15,3 C 72 % 1014,6 hPa 0,0 l/m N-NO 0,00 h 6 W/m 13,8 km/h (3 Bft)
17.06.2014 22:00 14,2 C 75 % 1015,2 hPa 0,0 l/m N-NO 0,00 h 0 W/m 12,5 km/h (3 Bft)
17.06.2014 23:00 13,7 C 75 % 1015,4 hPa 0,0 l/m N-NO 0,00 h 0 W/m 12,0 km/h (2 Bft)
18.06.2014 00:00 12,8 C 77 % 1015,5 hPa 0,0 l/m N-NO 0,00 h 0 W/m 9,0 km/h (2 Bft)
18.06.2014 01:00 11,7 C 82 % 1015,3 hPa 0,0 l/m N 0,00 h 0 W/m 9,8 km/h (2 Bft)
18.06.2014 02:00 11,1 C 85 % 1015,0 hPa 0,0 l/m N 0,00 h 0 W/m 7,0 km/h (2 Bft)
18.06.2014 03:00 10,6 C 87 % 1014,9 hPa 0,0 l/m N-NO 0,00 h 0 W/m 6,9 km/h (2 Bft)
18.06.2014 04:00 10,3 C 89 % 1014,8 hPa 0,0 l/m N-NO 0,00 h 0 W/m 8,0 km/h (2 Bft)
18.06.2014 05:00 10,0 C 91 % 1014,9 hPa 0,0 l/m N-NO 0,00 h 9 W/m 9,0 km/h (2 Bft)
18.06.2014 06:00 10,4 C 90 % 1015,3 hPa 0,0 l/m N-NO 0,00 h 61 W/m 8,8 km/h (2 Bft)
18.06.2014 07:00 12,1 C 86 % 1015,5 hPa 0,0 l/m NO 0,83 h 195 W/m 12,0 km/h (2 Bft)
18.06.2014 08:00 13,9 C 80 % 1015,8 hPa 0,0 l/m NO 1,00 h 353 W/m 12,6 km/h (3 Bft)
18.06.2014 09:00 15,8 C 74 % 1016,0 hPa 0,0 l/m O-NO 1,00 h 511 W/m 13,3 km/h (3 Bft)
18.06.2014 10:00 18,2 C 64 % 1015,8 hPa 0,0 l/m O 1,00 h 658 W/m 15,3 km/h (3 Bft)
18.06.2014 11:00 19,6 C 56 % 1015,7 hPa 0,0 l/m O-NO 1,00 h 791 W/m 19,4 km/h (3 Bft)
18.06.2014 12:00 20,9 C 50 % 1015,6 hPa 0,0 l/m O-NO 1,00 h 918 W/m 22,1 km/h (4 Bft)
18.06.2014 13:00 21,3 C 49 % 1015,2 hPa 0,0 l/m O-NO 0,75 h 793 W/m 22,6 km/h (4 Bft)
18.06.2014 14:00 22,7 C 43 % 1014,8 hPa 0,0 l/m NO 0,83 h 788 W/m 23,7 km/h (4 Bft)
18.06.2014 15:00 23,0 C 42 % 1014,4 hPa 0,0 l/m NO 0,58 h 632 W/m 21,6 km/h (4 Bft)
18.06.2014 16:00 22,6 C 42 % 1014,0 hPa 0,0 l/m O-NO 0,42 h 434 W/m 17,4 km/h (3 Bft)
18.06.2014 17:00 22,9 C 41 % 1013,7 hPa 0,0 l/m NO 0,58 h 394 W/m 18,0 km/h (3 Bft)
18.06.2014 18:00 22,9 C 40 % 1013,5 hPa 0,0 l/m O-NO 0,92 h 353 W/m 19,2 km/h (3 Bft)
18.06.2014 19:00 22,3 C 40 % 1013,7 hPa 0,0 l/m O-NO 1,00 h 222 W/m 16,6 km/h (3 Bft)
18.06.2014 20:00 20,9 C 46 % 1013,9 hPa 0,0 l/m NO 0,25 h 45 W/m 12,6 km/h (3 Bft)
18.06.2014 21:00 18,9 C 53 % 1014,3 hPa 0,0 l/m N-NO 0,00 h 8 W/m 9,1 km/h (2 Bft)
18.06.2014 22:00 16,5 C 63 % 1014,7 hPa 0,0 l/m N-NW 0,00 h 0 W/m 8,2 km/h (2 Bft)
18.06.2014 23:00 15,6 C 67 % 1014,9 hPa 0,0 l/m N-NW 0,00 h 0 W/m 7,2 km/h (2 Bft)
19.06.2014 00:00 15,0 C 68 % 1015,0 hPa 0,0 l/m N-NW 0,00 h 0 W/m 5,7 km/h (1 Bft)
19.06.2014 01:00 14,7 C 68 % 1014,9 hPa 0,0 l/m N-NW 0,00 h 0 W/m 4,1 km/h (1 Bft)
19.06.2014 02:00 14,0 C 69 % 1014,8 hPa 0,0 l/m N-NW 0,00 h 0 W/m 5,1 km/h (1 Bft)
19.06.2014 03:00 12,3 C 78 % 1014,9 hPa 0,0 l/m N 0,00 h 0 W/m 0,8 km/h (0 Bft)
19.06.2014 04:00 10,9 C 84 % 1014,7 hPa 0,0 l/m N 0,00 h 0 W/m 0,0 km/h (0 Bft)
19.06.2014 05:00 10,3 C 86 % 1014,9 hPa 0,0 l/m N 0,00 h 10 W/m 0,1 km/h (0 Bft)
19.06.2014 06:00 10,6 C 86 % 1015,1 hPa 0,0 l/m N 0,00 h 61 W/m 0,0 km/h (0 Bft)
19.06.2014 07:00 13,1 C 79 % 1015,1 hPa 0,0 l/m N 0,33 h 151 W/m 0,5 km/h (0 Bft)
19.06.2014 08:00 15,9 C 67 % 1015,2 hPa 0,0 l/m N-NW 1,00 h 352 W/m 3,9 km/h (1 Bft)
19.06.2014 09:00 17,4 C 63 % 1015,1 hPa 0,0 l/m N-NO 1,00 h 496 W/m 5,9 km/h (2 Bft)
19.06.2014 10:00 18,9 C 60 % 1014,9 hPa 0,0 l/m N-NO 1,00 h 644 W/m 7,0 km/h (2 Bft)
19.06.2014 11:00 20,4 C 53 % 1014,8 hPa 0,0 l/m N-NO 0,75 h 670 W/m 10,6 km/h (2 Bft)
19.06.2014 12:00 21,8 C 48 % 1014,3 hPa 0,0 l/m NW 0,58 h 620 W/m 10,3 km/h (2 Bft)
19.06.2014 13:00 21,1 C 51 % 1014,1 hPa 0,0 l/m N 0,08 h 283 W/m 10,2 km/h (2 Bft)
19.06.2014 14:00 22,0 C 47 % 1013,5 hPa 0,0 l/m O-SO 0,25 h 384 W/m 9,1 km/h (2 Bft)
19.06.2014 15:00 22,5 C 48 % 1013,2 hPa 0,0 l/m SO 0,50 h 546 W/m 10,8 km/h (2 Bft)
19.06.2014 16:00 21,0 C 53 % 1012,8 hPa 0,2 l/m N 0,00 h 100 W/m 8,7 km/h (2 Bft)
19.06.2014 17:00 19,1 C 62 % 1012,8 hPa 0,0 l/m W 0,00 h 115 W/m 11,1 km/h (2 Bft)
19.06.2014 18:00 19,1 C 65 % 1012,8 hPa 0,0 l/m S-SW 0,00 h 122 W/m 6,5 km/h (2 Bft)
19.06.2014 19:00 19,8 C 61 % 1012,9 hPa 0,0 l/m N-NO 1,00 h 234 W/m 7,2 km/h (2 Bft)
19.06.2014 20:00 19,0 C 58 % 1013,3 hPa 0,0 l/m N 0,25 h 49 W/m 7,0 km/h (2 Bft)
19.06.2014 21:00 16,6 C 73 % 1013,7 hPa 0,0 l/m N 0,00 h 9 W/m 2,1 km/h (1 Bft)
19.06.2014 22:00 14,4 C 85 % 1014,3 hPa 0,0 l/m N 0,00 h 0 W/m 0,4 km/h (0 Bft)
19.06.2014 23:00 13,2 C 89 % 1014,5 hPa 0,0 l/m N 0,00 h 0 W/m 0,1 km/h (0 Bft)
20.06.2014 00:00 12,6 C 91 % 1014,3 hPa 0,0 l/m N 0,00 h 0 W/m 0,0 km/h (0 Bft)
20.06.2014 01:00 11,7 C 94 % 1014,4 hPa 0,0 l/m N 0,00 h 0 W/m 0,1 km/h (0 Bft)
20.06.2014 02:00 11,2 C 95 % 1014,4 hPa 0,0 l/m N 0,00 h 0 W/m 1,2 km/h (1 Bft)
20.06.2014 03:00 10,9 C 95 % 1014,3 hPa 0,0 l/m N 0,00 h 0 W/m 2,8 km/h (1 Bft)
20.06.2014 04:00 10,4 C 96 % 1014,0 hPa 0,0 l/m N 0,00 h 0 W/m 0,0 km/h (0 Bft)
20.06.2014 05:00 10,6 C 96 % 1014,0 hPa 0,0 l/m N 0,00 h 9 W/m 0,0 km/h (0 Bft)
20.06.2014 06:00 11,0 C 95 % 1014,0 hPa 0,0 l/m N 0,00 h 27 W/m 0,5 km/h (0 Bft)
20.06.2014 07:00 12,0 C 91 % 1014,2 hPa 0,0 l/m N 0,00 h 51 W/m 0,1 km/h (0 Bft)
20.06.2014 08:00 12,7 C 88 % 1014,3 hPa 0,0 l/m N 0,00 h 85 W/m 2,1 km/h (1 Bft)
20.06.2014 09:00 13,8 C 84 % 1014,4 hPa 0,0 l/m N 0,00 h 204 W/m 7,0 km/h (2 Bft)
20.06.2014 10:00 15,3 C 77 % 1014,4 hPa 0,0 l/m N 0,00 h 278 W/m 13,4 km/h (3 Bft)
20.06.2014 11:00 15,9 C 74 % 1014,6 hPa 0,0 l/m N 0,08 h 252 W/m 14,5 km/h (3 Bft)
20.06.2014 12:00 16,1 C 73 % 1014,7 hPa 0,0 l/m N 0,08 h 366 W/m 17,2 km/h (3 Bft)
20.06.2014 13:00 16,6 C 71 % 1014,9 hPa 0,0 l/m N-NO 0,25 h 440 W/m 17,0 km/h (3 Bft)
20.06.2014 14:00 16,6 C 68 % 1014,8 hPa 0,0 l/m N-NO 0,42 h 666 W/m 19,4 km/h (3 Bft)
20.06.2014 15:00 17,7 C 61 % 1014,6 hPa 0,0 l/m N-NO 0,67 h 755 W/m 16,7 km/h (3 Bft)
20.06.2014 16:00 19,6 C 52 % 1014,3 hPa 0,0 l/m N 1,00 h 809 W/m 18,2 km/h (3 Bft)
20.06.2014 17:00 18,9 C 52 % 1014,3 hPa 0,0 l/m N-NO 0,33 h 318 W/m 16,8 km/h (3 Bft)
20.06.2014 18:00 18,5 C 52 % 1014,6 hPa 0,0 l/m N-NO 0,42 h 278 W/m 16,0 km/h (3 Bft)
20.06.2014 19:00 17,4 C 55 % 1014,8 hPa 0,0 l/m N-NO 0,17 h 95 W/m 14,1 km/h (3 Bft)
20.06.2014 20:00 16,2 C 58 % 1015,1 hPa 0,0 l/m NO 0,17 h 57 W/m 10,8 km/h (2 Bft)
20.06.2014 21:00 14,9 C 61 % 1015,5 hPa 0,0 l/m N-NO 0,25 h 12 W/m 10,2 km/h (2 Bft)
20.06.2014 22:00 13,5 C 66 % 1015,8 hPa 0,0 l/m N-NO 0,00 h 0 W/m 5,3 km/h (1 Bft)
20.06.2014 23:00 12,5 C 72 % 1015,7 hPa 0,0 l/m N-NO 0,00 h 0 W/m 2,1 km/h (1 Bft)
21.06.2014 00:00 12,2 C 73 % 1015,8 hPa 0,0 l/m N-NO 0,00 h 0 W/m 3,5 km/h (1 Bft)
21.06.2014 01:00 11,8 C 75 % 1016,0 hPa 0,0 l/m N-NO 0,00 h 0 W/m 3,5 km/h (1 Bft)
21.06.2014 02:00 11,1 C 77 % 1015,8 hPa 0,0 l/m N 0,00 h 0 W/m 2,1 km/h (1 Bft)
21.06.2014 03:00 10,9 C 79 % 1015,7 hPa 0,0 l/m N-NO 0,00 h 0 W/m 3,6 km/h (1 Bft)
21.06.2014 04:00 10,8 C 80 % 1015,8 hPa 0,0 l/m N-NO 0,00 h 0 W/m 4,3 km/h (1 Bft)
21.06.2014 05:00 10,2 C 82 % 1015,6 hPa 0,0 l/m N 0,00 h 7 W/m 1,1 km/h (0 Bft)
21.06.2014 06:00 10,6 C 82 % 1015,9 hPa 0,0 l/m N-NO 0,00 h 25 W/m 2,7 km/h (1 Bft)
21.06.2014 07:00 11,5 C 80 % 1016,0 hPa 0,0 l/m N-NO 0,25 h 107 W/m 3,9 km/h (1 Bft)
21.06.2014 08:00 13,4 C 73 % 1016,2 hPa 0,0 l/m NO 1,00 h 356 W/m 9,0 km/h (2 Bft)
21.06.2014 09:00 15,1 C 67 % 1016,1 hPa 0,0 l/m O-NO 1,00 h 505 W/m 10,6 km/h (2 Bft)
21.06.2014 10:00 16,7 C 61 % 1015,9 hPa 0,0 l/m O-SO 1,00 h 657 W/m 12,4 km/h (3 Bft)
21.06.2014 11:00 17,8 C 56 % 1015,7 hPa 0,0 l/m O 1,00 h 822 W/m 11,4 km/h (2 Bft)
21.06.2014 12:00 18,1 C 54 % 1015,3 hPa 0,0 l/m NO 0,50 h 550 W/m 9,3 km/h (2 Bft)
21.06.2014 13:00 19,3 C 51 % 1015,0 hPa 0,0 l/m NO 0,75 h 860 W/m 10,2 km/h (2 Bft)
21.06.2014 14:00 20,2 C 47 % 1014,8 hPa 0,0 l/m SW 0,75 h 794 W/m 9,8 km/h (2 Bft)
21.06.2014 15:00 21,7 C 43 % 1014,5 hPa 0,0 l/m N-NO 1,00 h 850 W/m 12,1 km/h (2 Bft)
21.06.2014 16:00 22,9 C 40 % 1014,1 hPa 0,0 l/m O-SO 1,00 h 715 W/m 13,0 km/h (3 Bft)
21.06.2014 17:00 23,0 C 40 % 1013,9 hPa 0,0 l/m O-SO 1,00 h 579 W/m 10,5 km/h (2 Bft)
21.06.2014 18:00 22,9 C 40 % 1013,6 hPa 0,0 l/m N-NO 1,00 h 410 W/m 8,8 km/h (2 Bft)
21.06.2014 19:00 22,1 C 43 % 1013,6 hPa 0,0 l/m NO 1,00 h 235 W/m 8,6 km/h (2 Bft)
21.06.2014 20:00 20,5 C 48 % 1013,7 hPa 0,0 l/m O 0,25 h 44 W/m 8,9 km/h (2 Bft)
21.06.2014 21:00 17,9 C 59 % 1014,3 hPa 0,0 l/m O-NO 0,00 h 8 W/m 3,3 km/h (1 Bft)
21.06.2014 22:00 15,5 C 67 % 1015,0 hPa 0,0 l/m O-NO 0,00 h 0 W/m 5,1 km/h (1 Bft)
21.06.2014 23:00 14,1 C 71 % 1015,3 hPa 0,0 l/m O-NO 0,00 h 0 W/m 4,7 km/h (1 Bft)
22.06.2014 00:00 13,0 C 71 % 1015,5 hPa 0,0 l/m NO 0,00 h 0 W/m 5,8 km/h (1 Bft)
22.06.2014 01:00 12,4 C 73 % 1015,5 hPa 0,0 l/m NO 0,00 h 0 W/m 6,3 km/h (2 Bft)
22.06.2014 02:00 12,0 C 74 % 1015,5 hPa 0,0 l/m N-NO 0,00 h 0 W/m 8,2 km/h (2 Bft)
22.06.2014 03:00 10,9 C 78 % 1015,4 hPa 0,0 l/m N-NO 0,00 h 0 W/m 5,3 km/h (1 Bft)
22.06.2014 04:00 10,1 C 82 % 1015,5 hPa 0,0 l/m N-NO 0,00 h 0 W/m 3,6 km/h (1 Bft)
22.06.2014 05:00 9,8 C 84 % 1015,6 hPa 0,0 l/m N-NO 0,00 h 9 W/m 4,7 km/h (1 Bft)
22.06.2014 06:00 10,4 C 83 % 1015,9 hPa 0,0 l/m N-NO 0,08 h 66 W/m 4,3 km/h (1 Bft)
22.06.2014 07:00 12,7 C 75 % 1016,3 hPa 0,0 l/m N-NO 0,83 h 212 W/m 4,5 km/h (1 Bft)
22.06.2014 08:00 15,0 C 68 % 1016,5 hPa 0,0 l/m N-NO 0,92 h 371 W/m 7,6 km/h (2 Bft)
22.06.2014 09:00 17,6 C 58 % 1016,3 hPa 0,0 l/m O-NO 1,00 h 541 W/m 10,6 km/h (2 Bft)
22.06.2014 10:00 19,3 C 53 % 1016,3 hPa 0,0 l/m O-NO 1,00 h 686 W/m 8,7 km/h (2 Bft)
22.06.2014 11:00 21,0 C 49 % 1016,2 hPa 0,0 l/m O-SO 1,00 h 798 W/m 9,8 km/h (2 Bft)
22.06.2014 12:00 22,6 C 47 % 1015,8 hPa 0,0 l/m O-SO 1,00 h 864 W/m 10,7 km/h (2 Bft)
22.06.2014 13:00 23,3 C 44 % 1015,5 hPa 0,0 l/m W-NW 1,00 h 899 W/m 12,4 km/h (3 Bft)
22.06.2014 14:00 24,9 C 41 % 1014,9 hPa 0,0 l/m S-SW 1,00 h 889 W/m 13,3 km/h (3 Bft)
22.06.2014 15:00 26,3 C 36 % 1014,6 hPa 0,0 l/m W-SW 1,00 h 820 W/m 14,9 km/h (3 Bft)
22.06.2014 16:00 26,7 C 34 % 1014,5 hPa 0,0 l/m W-SW 0,92 h 659 W/m 14,4 km/h (3 Bft)
22.06.2014 17:00 26,7 C 35 % 1014,2 hPa 0,0 l/m NO 0,75 h 514 W/m 8,6 km/h (2 Bft)
22.06.2014 18:00 25,4 C 37 % 1013,9 hPa 0,0 l/m N-NO 0,25 h 198 W/m 10,3 km/h (2 Bft)
22.06.2014 19:00 24,8 C 39 % 1014,5 hPa 0,0 l/m N-NO 0,92 h 207 W/m 15,8 km/h (3 Bft)
22.06.2014 20:00 22,1 C 46 % 1015,2 hPa 0,0 l/m N-NO 0,00 h 46 W/m 13,7 km/h (3 Bft)
22.06.2014 21:00 19,9 C 51 % 1016,1 hPa 0,0 l/m N-NO 0,08 h 11 W/m 7,4 km/h (2 Bft)
22.06.2014 22:00 17,5 C 61 % 1017,0 hPa 0,0 l/m N-NO 0,00 h 0 W/m 3,2 km/h (1 Bft)
22.06.2014 23:00 16,9 C 62 % 1017,3 hPa 0,0 l/m N-NO 0,00 h 0 W/m 5,1 km/h (1 Bft)
Min-Datum _ 22.06.14 16.06.14 19.06.14 - - - - 19.06.14
_ Min-Zeit 05:40 17:25 16:40 - - - - 02:55
Minimum _ 9,7 C 33 % 1012,6 hPa - - - - 0,0 km/h (0 Bft)
Max-Datum _ 22.06.14 20.06.14 22.06.14 17.06.14 - 16.06.14 20.06.14 18.06.14
_ Max-Zeit 17:20 02:45 23:45 15:20 - 07:00 14:15 14:50
Maximum _ 27,4 C 96 % 1017,6 hPa 0,2 l/m - 0,08 h 1099 W/m 37,0 km/h
O-NO (5 Bft)
Durchschnitt _ 16,3 C 65 % 1014,8 hPa #0,4 l/m N-NO #62:45 h 373 W/m 10,0 km/h (2 Bft)